createdAt,value
2022-09-05T00:04:14.995Z,17.1
2022-09-05T05:17:15.310Z,16.7
2022-09-05T05:17:49.328Z,16.2
2022-09-05T05:22:59.865Z,15.2
2022-09-05T05:28:10.278Z,15.3
2022-09-05T05:34:11.949Z,15.3
2022-09-05T05:39:28.313Z,15.3
2022-09-05T05:44:53.773Z,15.8
2022-09-05T05:50:48.770Z,16.2
2022-09-05T05:56:11.556Z,16.4
2022-09-05T06:07:30.403Z,16.2
2022-09-05T06:14:54.133Z,15.9
2022-09-05T06:18:28.189Z,15.9
2022-09-05T06:24:09.909Z,16.3
2022-09-05T06:35:31.677Z,16.6
2022-09-05T08:38:34.493Z,19.5
2022-09-05T08:55:27.394Z,21.4
2022-09-05T09:34:47.315Z,21.4
2022-09-05T09:40:38.901Z,21.8
2022-09-05T09:46:13.034Z,22.5
2022-09-05T09:51:36.816Z,22.4
2022-09-05T10:04:12.553Z,22.2
2022-09-05T10:14:09.004Z,23.3
2022-09-05T10:25:44.273Z,23.3
2022-09-05T10:59:54.135Z,23.8
2022-09-05T11:05:20.746Z,23.9
2022-09-05T11:10:35.263Z,23.5
2022-09-05T11:16:13.574Z,23.9
2022-09-05T11:22:10.398Z,24.8
2022-09-05T11:27:47.004Z,24.4
2022-09-05T11:36:44.377Z,24.6
2022-09-05T11:40:00.754Z,24.9
2022-09-05T13:04:17.786Z,27.1
2022-09-05T13:43:50.560Z,27.8
2022-09-05T13:49:31.921Z,26.7
2022-09-05T13:55:03.132Z,27.4
2022-09-05T14:00:53.410Z,27.8
2022-09-05T14:06:46.838Z,28.2
2022-09-05T14:12:21.613Z,28.1
2022-09-05T14:17:54.401Z,27.6
2022-09-05T14:23:38.002Z,28
2022-09-05T15:43:02.702Z,27.3
2022-09-05T16:50:34.070Z,28.3
2022-09-05T17:02:06.153Z,26.7
2022-09-05T17:07:20.586Z,26.5
2022-09-05T18:20:25.404Z,23.4
2022-09-05T18:26:02.856Z,22.8
2022-09-05T18:31:41.189Z,22
2022-09-05T18:43:10.391Z,22.4
2022-09-05T18:54:20.166Z,21.6
2022-09-05T18:59:49.375Z,21.7
2022-09-05T19:05:31.166Z,21.7
2022-09-05T19:10:40.562Z,21.4
2022-09-05T19:16:42.973Z,21.8
2022-09-05T19:29:51.616Z,21.5
2022-09-05T19:37:00.901Z,21.3
2022-09-05T19:39:18.309Z,21.2
2022-09-05T19:47:32.802Z,20.9
2022-09-05T19:50:14.977Z,20.9
2022-09-05T19:55:33.274Z,20.5
2022-09-05T20:01:13.035Z,20.7
2022-09-05T20:23:46.864Z,20.6
2022-09-05T20:43:13.416Z,20.5
2022-09-05T20:46:21.151Z,20.6
2022-09-05T20:54:10.743Z,20.7
2022-09-05T20:57:23.246Z,20.5
2022-09-05T21:02:57.532Z,20.5
2022-09-05T21:08:38.392Z,20.3
2022-09-05T21:14:10.340Z,20.1
2022-09-05T21:30:54.606Z,19.5
2022-09-05T21:36:16.522Z,19.4
2022-09-05T21:43:13.322Z,19.4
2022-09-05T21:47:37.074Z,19.6
2022-09-05T21:53:43.263Z,19.8
2022-09-05T21:59:22.877Z,19.4
2022-09-05T22:04:24.667Z,19.3
2022-09-05T22:09:47.007Z,19.2
2022-09-05T22:15:32.605Z,18.9
2022-09-05T22:21:31.528Z,18.5
2022-09-05T22:27:01.526Z,18.4
2022-09-05T22:32:15.230Z,18.2
2022-09-05T22:37:40.757Z,18.2
2022-09-05T22:43:09.655Z,18.3
2022-09-05T22:48:43.906Z,18.9
2022-09-05T22:54:29.592Z,18.8
2022-09-05T23:05:31.345Z,19.2
2022-09-05T23:11:29.790Z,19.1
2022-09-05T23:16:49.982Z,18.3
2022-09-05T23:22:31.648Z,17.9
2022-09-05T23:27:59.397Z,17.8
2022-09-05T23:33:29.393Z,17.5
2022-09-05T23:39:17.629Z,17.8
2022-09-05T23:44:58.190Z,18.1
2022-09-05T23:50:09.332Z,17.8
2022-09-05T23:55:52.291Z,17.9
